logo dgac
Lunes 20 de Mayo del 2019
Buscar por aerodromo o helipuerto
Ingrese nombre de aeródromo, localidad o designador OACI:
METAR del 20-05-2019 a las 13:00 UTC
METAR SCNT 201300Z 31015KT 260V320 9999 SCT040 SCT100 10/01 Q1017
Viento: dirección 310 grados, velocidad 15 nudos
Viento con dirección variable entre 260 y 320 grados
Visibilidad: 10 km o más
Nubes: Nubosidad parcial a 4000 pies sobre el nivel del aeródromo
Nubes: Nubosidad parcial a 10000 pies sobre el nivel del aeródromo
Temperatura: 10 °C
Rocío: 1 °C
Humedad_relativa: 54%
Presión: 1017 hPa
METAR del 20-05-2019 a las 12:00 UTC
METAR SCNT 201200Z VRB09G19KT 9999 BKN040 11/M00 Q1016
Viento: dirección variable, velocidad 9 nudos, con ráfagas de velocidad máxima de 19Nudos
Visibilidad: 10 km o más
Nubes: Nublado a 4000 pies sobre el nivel del aeródromo
Temperatura: 11 °C
Rocío: -0 °C
Humedad_relativa: 47%
Presión: 1016 hPa
METAR del 20-05-2019 a las 12:00 UTC
METAR SCNT 201200Z VRB09G19KT 9999 BKN040 11/M00 Q1016
Viento: dirección variable, velocidad 9 nudos, con ráfagas de velocidad máxima de 19Nudos
Visibilidad: 10 km o más
Nubes: Nublado a 4000 pies sobre el nivel del aeródromo
Temperatura: 11 °C
Rocío: -0 °C
Humedad_relativa: 47%
Presión: 1016 hPa
METAR del 20-05-2019 a las 11:00 UTC
METAR SCNT 201100Z VRB09G20KT 9999 BKN040 11/M00 Q1017
Viento: dirección variable, velocidad 9 nudos, con ráfagas de velocidad máxima de 20Nudos
Visibilidad: 10 km o más
Nubes: Nublado a 4000 pies sobre el nivel del aeródromo
Temperatura: 11 °C
Rocío: -0 °C
Humedad_relativa: 47%
Presión: 1017 hPa
METAR del 20-05-2019 a las 10:00 UTC
METAR SCNT 201000Z 00000KT 9999 BKN040 10/00 Q1016
Visibilidad: 10 km o más
Nubes: Nublado a 4000 pies sobre el nivel del aeródromo
Temperatura: 10 °C
Rocío: 0 °C
Humedad_relativa: 50%
Presión: 1016 hPa
METAR del 20-05-2019 a las 10:00 UTC
METAR SCNT 201000Z 00000KT 9999 BKN040 10/00 Q1016
Visibilidad: 10 km o más
Nubes: Nublado a 4000 pies sobre el nivel del aeródromo
Temperatura: 10 °C
Rocío: 0 °C
Humedad_relativa: 50%
Presión: 1016 hPa
METAR del 19-05-2019 a las 15:00 UTC
METAR SCNT 191500Z VRB03KT 9999 FEW006 SCT021 06/M00 Q1014
Viento: dirección variable, velocidad 3 nudos
Visibilidad: 10 km o más
Nubes: Escasa nubosidad a 600 pies sobre el nivel del aeródromo
Nubes: Nubosidad parcial a 2100 pies sobre el nivel del aeródromo
Temperatura: 6 °C
Rocío: -0 °C
Humedad_relativa: 65%
Presión: 1014 hPa
METAR del 19-05-2019 a las 14:00 UTC
METAR SCNT 191400Z 05003KT 000V120 9999 VCSH SCT021 03/00 Q1013
Viento: dirección 050 grados, velocidad 3 nudos
Viento con dirección variable entre 000 y 120 grados
Visibilidad: 10 km o más
En los alrededores, Chubascos
Nubes: Nubosidad parcial a 2100 pies sobre el nivel del aeródromo
Temperatura: 3 °C
Rocío: 0 °C
Humedad_relativa: 81%
Presión: 1013 hPa
METAR del 19-05-2019 a las 14:00 UTC
METAR SCNT 191400Z 05003KT 000V120 9999 VCSH SCT021 03/00 Q1013
Viento: dirección 050 grados, velocidad 3 nudos
Viento con dirección variable entre 000 y 120 grados
Visibilidad: 10 km o más
En los alrededores, Chubascos
Nubes: Nubosidad parcial a 2100 pies sobre el nivel del aeródromo
Temperatura: 3 °C
Rocío: 0 °C
Humedad_relativa: 81%
Presión: 1013 hPa